createdAt,value
2022-09-30T00:01:43.820Z,19.60
2022-09-30T00:04:10.246Z,19.70
2022-09-30T00:06:36.654Z,19.60
2022-09-30T00:09:03.110Z,19.70
2022-09-30T00:11:29.665Z,19.60
2022-09-30T00:13:56.121Z,19.60
2022-09-30T00:16:22.603Z,19.70
2022-09-30T00:18:49.051Z,19.70
2022-09-30T00:21:15.461Z,19.70
2022-09-30T00:23:41.845Z,19.60
2022-09-30T00:26:08.256Z,19.70
2022-09-30T00:28:34.660Z,19.70
2022-09-30T00:31:01.136Z,19.60
2022-09-30T00:33:27.556Z,19.70
2022-09-30T00:35:53.951Z,19.60
2022-09-30T00:38:20.375Z,19.70
2022-09-30T00:40:46.833Z,19.70
2022-09-30T00:43:13.249Z,19.70
2022-09-30T00:45:39.653Z,19.60
2022-09-30T00:48:06.077Z,19.60
2022-09-30T00:50:32.488Z,19.60
2022-09-30T00:52:58.881Z,19.60
2022-09-30T00:55:25.277Z,19.60
2022-09-30T00:57:51.693Z,19.60
2022-09-30T01:00:18.100Z,19.60
2022-09-30T01:02:44.508Z,19.60
2022-09-30T01:05:10.904Z,19.60
2022-09-30T01:07:37.298Z,19.60
2022-09-30T01:10:03.709Z,19.70
2022-09-30T01:12:30.098Z,19.60
2022-09-30T01:14:56.504Z,19.60
2022-09-30T01:17:22.905Z,19.60
2022-09-30T01:19:49.309Z,19.60
2022-09-30T01:22:15.701Z,19.60
2022-09-30T01:24:42.092Z,19.60
2022-09-30T01:27:08.494Z,19.60
2022-09-30T01:29:34.921Z,19.60
2022-09-30T01:32:01.311Z,19.60
2022-09-30T01:34:27.730Z,19.60
2022-09-30T01:36:54.141Z,19.60
2022-09-30T01:39:20.590Z,19.60
2022-09-30T01:41:47.065Z,19.60
2022-09-30T01:44:13.473Z,19.60
2022-09-30T01:46:39.952Z,19.60
2022-09-30T01:49:06.406Z,19.60
2022-09-30T01:51:32.806Z,19.50
2022-09-30T01:53:59.217Z,19.70
2022-09-30T01:56:25.608Z,19.60
2022-09-30T01:58:52.004Z,19.60
2022-09-30T02:01:18.460Z,19.60
2022-09-30T02:03:44.912Z,19.60
2022-09-30T02:06:11.301Z,19.60
2022-09-30T02:08:37.706Z,19.60
2022-09-30T02:11:04.115Z,19.60
2022-09-30T02:13:30.500Z,19.60
2022-09-30T02:15:56.931Z,19.60
2022-09-30T02:18:23.418Z,19.60
2022-09-30T02:20:49.813Z,19.60
2022-09-30T02:23:16.212Z,19.60
2022-09-30T02:25:42.612Z,19.60
2022-09-30T02:28:09.015Z,19.60
2022-09-30T02:30:35.411Z,19.60
2022-09-30T02:33:01.804Z,19.70
2022-09-30T02:35:28.205Z,19.60
2022-09-30T02:37:54.618Z,19.60
2022-09-30T02:40:21.036Z,19.70
2022-09-30T02:42:47.450Z,19.70
2022-09-30T02:45:13.833Z,19.60
2022-09-30T02:47:40.244Z,19.70
2022-09-30T02:50:06.659Z,19.60
2022-09-30T02:52:33.050Z,19.60
2022-09-30T02:54:59.486Z,19.60
2022-09-30T02:57:25.884Z,19.60
2022-09-30T02:59:52.299Z,19.70
2022-09-30T03:02:18.775Z,19.70
2022-09-30T03:04:45.221Z,19.60
2022-09-30T03:07:11.634Z,19.70
2022-09-30T03:09:38.079Z,19.60
2022-09-30T03:12:04.522Z,19.60
2022-09-30T03:14:30.913Z,19.60
2022-09-30T03:16:57.317Z,19.60
2022-09-30T03:19:23.853Z,19.60
2022-09-30T03:21:50.426Z,19.60
2022-09-30T03:24:16.836Z,19.60
2022-09-30T03:26:43.256Z,19.60
2022-09-30T03:29:09.662Z,19.70
2022-09-30T03:31:36.095Z,19.60
2022-09-30T03:34:02.527Z,19.60
2022-09-30T03:36:28.920Z,19.60
2022-09-30T03:38:55.334Z,19.70
2022-09-30T03:41:21.721Z,19.60
2022-09-30T03:43:48.117Z,19.70
2022-09-30T03:46:14.566Z,19.70
2022-09-30T03:48:40.981Z,19.70
2022-09-30T03:51:07.377Z,19.70
2022-09-30T03:53:33.795Z,19.70
2022-09-30T03:56:00.289Z,19.70
2022-09-30T03:58:26.687Z,19.70
2022-09-30T04:00:53.142Z,19.70
2022-09-30T04:03:19.584Z,19.70
2022-09-30T04:05:46.002Z,19.70
2022-09-30T04:08:12.397Z,19.70
2022-09-30T04:10:38.798Z,19.60
2022-09-30T04:13:05.223Z,19.60
2022-09-30T04:15:31.628Z,19.70
2022-09-30T04:17:58.069Z,19.60
2022-09-30T04:20:24.469Z,19.70
2022-09-30T04:22:50.893Z,19.60
2022-09-30T04:25:17.293Z,19.70
2022-09-30T04:27:43.684Z,19.70
2022-09-30T04:30:10.102Z,19.70
2022-09-30T04:32:36.516Z,19.60
2022-09-30T04:35:02.924Z,19.80
2022-09-30T04:37:29.321Z,19.70
2022-09-30T04:39:55.738Z,19.80
2022-09-30T04:42:22.126Z,19.80
2022-09-30T04:44:48.520Z,19.90
2022-09-30T04:47:14.909Z,19.90
2022-09-30T04:49:41.298Z,19.80
2022-09-30T04:52:07.699Z,19.80
2022-09-30T04:54:34.098Z,19.80
2022-09-30T04:57:00.496Z,19.80
2022-09-30T04:59:26.892Z,19.80
2022-09-30T05:01:53.357Z,19.80
2022-09-30T05:04:19.804Z,19.80
2022-09-30T05:06:46.214Z,19.80
2022-09-30T05:09:12.665Z,19.70
2022-09-30T05:11:39.078Z,19.70
2022-09-30T05:14:05.493Z,19.80
2022-09-30T05:16:31.935Z,19.70
2022-09-30T05:18:58.371Z,19.80
2022-09-30T05:21:24.763Z,19.80
2022-09-30T05:23:51.173Z,19.80
2022-09-30T05:26:17.567Z,19.70
2022-09-30T05:28:43.957Z,19.80
2022-09-30T05:31:10.374Z,19.70
2022-09-30T05:33:36.794Z,19.70
2022-09-30T05:36:03.190Z,19.70
2022-09-30T05:38:29.588Z,19.70
2022-09-30T05:40:56.007Z,19.70
2022-09-30T05:43:22.419Z,19.70
2022-09-30T05:45:48.812Z,19.60
2022-09-30T05:48:15.221Z,19.70
2022-09-30T05:50:41.620Z,19.60
2022-09-30T05:53:08.051Z,19.70
2022-09-30T05:55:38.959Z,19.70
2022-09-30T05:58:05.657Z,19.60
2022-09-30T06:00:32.045Z,19.70
2022-09-30T06:02:58.499Z,19.70
2022-09-30T06:05:24.940Z,19.70
2022-09-30T06:07:51.348Z,19.70
2022-09-30T06:10:17.765Z,19.70
2022-09-30T06:12:44.164Z,19.80
2022-09-30T06:15:10.576Z,19.70
2022-09-30T06:17:37.010Z,19.80
2022-09-30T06:20:03.412Z,19.80
2022-09-30T06:22:29.806Z,19.80
2022-09-30T06:24:56.217Z,19.80
2022-09-30T06:27:22.618Z,19.80
2022-09-30T06:29:49.045Z,19.80
2022-09-30T06:32:15.436Z,19.90
2022-09-30T06:34:41.841Z,19.90
2022-09-30T06:37:08.245Z,19.90
2022-09-30T06:39:34.650Z,19.90
2022-09-30T06:42:01.049Z,19.90
2022-09-30T06:44:27.455Z,19.80
2022-09-30T06:46:54.315Z,19.90
2022-09-30T06:49:20.843Z,19.80
2022-09-30T06:51:47.249Z,19.80
2022-09-30T06:54:13.645Z,19.80
2022-09-30T06:56:40.052Z,19.80
2022-09-30T06:59:06.481Z,19.80
2022-09-30T07:01:32.899Z,19.90
2022-09-30T07:03:59.294Z,19.90
2022-09-30T07:06:25.700Z,19.80
2022-09-30T07:08:52.101Z,19.80
2022-09-30T07:11:18.501Z,19.90
2022-09-30T07:13:44.901Z,19.90
2022-09-30T07:16:11.313Z,19.90
2022-09-30T07:18:37.725Z,19.80
2022-09-30T07:21:04.116Z,19.90
2022-09-30T07:23:30.522Z,19.80
2022-09-30T07:25:56.937Z,19.90
2022-09-30T07:28:23.341Z,19.90
2022-09-30T07:30:49.826Z,19.90
2022-09-30T07:33:16.231Z,19.80
2022-09-30T07:35:42.635Z,19.90
2022-09-30T07:38:09.032Z,19.90
2022-09-30T07:40:35.427Z,19.90
2022-09-30T07:43:01.815Z,19.90
2022-09-30T07:45:28.301Z,19.90
2022-09-30T07:47:54.767Z,19.80
2022-09-30T07:50:21.193Z,19.90
2022-09-30T07:52:47.615Z,19.80
2022-09-30T07:55:14.060Z,19.90
2022-09-30T07:57:40.463Z,19.80
2022-09-30T08:00:29.776Z,19.80
2022-09-30T08:02:53.245Z,19.90
2022-09-30T08:05:19.666Z,19.90
2022-09-30T08:07:46.095Z,19.80
2022-09-30T08:10:12.573Z,19.90
2022-09-30T08:12:39.002Z,19.80
2022-09-30T08:15:05.410Z,19.80
2022-09-30T08:17:31.809Z,19.80
2022-09-30T08:19:58.206Z,19.80
2022-09-30T08:22:24.647Z,19.80
2022-09-30T08:24:51.069Z,19.80
2022-09-30T08:27:17.515Z,19.80
2022-09-30T08:29:55.057Z,19.80
2022-09-30T08:32:22.473Z,19.80
2022-09-30T08:37:15.816Z,19.80
2022-09-30T08:39:42.227Z,19.80
2022-09-30T08:42:19.035Z,19.80
2022-09-30T08:44:51.823Z,19.80
2022-09-30T08:47:18.232Z,19.70
2022-09-30T08:49:44.642Z,19.80
2022-09-30T08:52:12.893Z,19.80
2022-09-30T08:54:46.403Z,19.80
2022-09-30T08:57:12.786Z,19.80
2022-09-30T08:59:39.192Z,19.90
2022-09-30T09:02:05.608Z,19.90
2022-09-30T09:04:32.073Z,19.90
2022-09-30T09:06:58.486Z,19.90
2022-09-30T09:09:24.966Z,19.90
2022-09-30T09:11:51.465Z,19.90
2022-09-30T09:14:17.885Z,19.90
2022-09-30T09:16:44.324Z,19.90
2022-09-30T09:19:10.799Z,19.90
2022-09-30T09:21:37.218Z,20.00
2022-09-30T09:24:03.612Z,19.90
2022-09-30T09:26:30.038Z,20.00
2022-09-30T09:28:56.448Z,20.00
2022-09-30T09:31:22.905Z,20.00
2022-09-30T09:33:49.390Z,20.00
2022-09-30T09:36:15.812Z,20.00
2022-09-30T09:38:42.203Z,20.00
2022-09-30T09:41:08.600Z,20.10
2022-09-30T09:43:35.017Z,20.10
2022-09-30T09:46:01.444Z,20.20
2022-09-30T09:48:27.877Z,20.10
2022-09-30T09:50:54.277Z,20.10
2022-09-30T09:53:20.692Z,20.20
2022-09-30T09:55:47.093Z,20.20
2022-09-30T09:58:13.517Z,20.20
2022-09-30T10:00:39.915Z,20.20
2022-09-30T10:03:06.318Z,20.30
2022-09-30T10:05:32.722Z,20.20
2022-09-30T10:07:59.139Z,20.20
2022-09-30T10:10:25.609Z,20.20
2022-09-30T10:12:52.032Z,20.20
2022-09-30T10:15:18.487Z,20.20
2022-09-30T10:17:44.885Z,20.20
2022-09-30T10:20:11.287Z,20.30
2022-09-30T10:22:37.702Z,20.20
2022-09-30T10:25:04.139Z,20.30
2022-09-30T10:27:30.558Z,20.30
2022-09-30T10:29:56.964Z,20.30
2022-09-30T10:32:23.398Z,20.30
2022-09-30T10:34:49.821Z,20.30
2022-09-30T10:37:16.228Z,20.30
2022-09-30T10:39:42.657Z,20.40
2022-09-30T10:42:09.049Z,20.30
2022-09-30T10:44:35.450Z,20.40
2022-09-30T10:47:01.941Z,20.40
2022-09-30T10:49:28.383Z,21.00
2022-09-30T10:51:54.782Z,20.40
2022-09-30T10:54:21.181Z,20.40
2022-09-30T10:56:47.593Z,20.40
2022-09-30T10:59:13.994Z,20.40
2022-09-30T11:01:40.483Z,20.40
2022-09-30T11:04:06.963Z,20.40
2022-09-30T11:06:33.383Z,20.40
2022-09-30T11:08:59.794Z,20.40
2022-09-30T11:11:26.243Z,20.30
2022-09-30T11:13:52.670Z,20.30
2022-09-30T11:16:19.122Z,20.30
2022-09-30T11:18:45.596Z,20.30
2022-09-30T11:21:11.995Z,20.30
2022-09-30T11:23:38.401Z,20.30
2022-09-30T11:26:04.797Z,20.30
2022-09-30T11:28:31.195Z,20.20
2022-09-30T11:30:57.604Z,20.20
2022-09-30T11:33:24.034Z,20.20
2022-09-30T11:35:50.450Z,20.20
2022-09-30T11:38:16.851Z,20.20
2022-09-30T11:40:43.259Z,20.20
2022-09-30T11:43:09.661Z,20.20
2022-09-30T11:45:36.132Z,20.20
2022-09-30T11:48:02.578Z,20.20
2022-09-30T11:50:28.989Z,20.20
2022-09-30T11:52:55.383Z,20.20
2022-09-30T11:55:21.784Z,20.20
2022-09-30T11:57:48.209Z,20.20
2022-09-30T12:00:14.604Z,20.20
2022-09-30T12:02:41.091Z,20.10
2022-09-30T12:05:07.534Z,20.10
2022-09-30T12:07:33.980Z,20.10
2022-09-30T12:10:00.376Z,20.00
2022-09-30T12:12:26.777Z,20.10
2022-09-30T12:14:53.208Z,20.10
2022-09-30T12:17:19.605Z,20.10
2022-09-30T12:19:46.015Z,20.10
2022-09-30T12:22:12.423Z,20.10
2022-09-30T12:24:38.826Z,20.10
2022-09-30T12:27:05.228Z,20.00
2022-09-30T12:29:31.644Z,20.00
2022-09-30T12:31:58.101Z,20.00
2022-09-30T12:34:24.562Z,20.00
2022-09-30T12:36:50.956Z,20.00
2022-09-30T12:39:17.360Z,19.90
2022-09-30T12:41:43.757Z,19.90
2022-09-30T12:44:10.145Z,20.00
2022-09-30T12:46:36.570Z,19.90
2022-09-30T12:49:02.967Z,20.00
2022-09-30T12:51:29.354Z,19.90
2022-09-30T12:53:55.761Z,19.90
2022-09-30T12:56:22.174Z,19.90
2022-09-30T12:58:48.570Z,19.90
2022-09-30T13:01:15.040Z,19.90
2022-09-30T13:03:41.528Z,19.90
2022-09-30T13:06:07.912Z,19.80
2022-09-30T13:08:34.313Z,19.90
2022-09-30T13:11:00.722Z,19.90
2022-09-30T13:13:27.109Z,19.90
2022-09-30T13:15:53.521Z,19.90
2022-09-30T13:18:19.932Z,19.90
2022-09-30T13:20:46.378Z,19.90
2022-09-30T13:23:12.777Z,19.90
2022-09-30T13:25:39.202Z,19.90
2022-09-30T13:28:05.617Z,19.90
2022-09-30T13:30:34.450Z,19.90
2022-09-30T13:33:01.051Z,19.90
2022-09-30T13:35:27.458Z,19.90
2022-09-30T13:37:53.884Z,19.90
2022-09-30T13:40:32.743Z,19.90
2022-09-30T13:43:06.701Z,19.90
2022-09-30T13:45:33.132Z,19.90
2022-09-30T13:47:59.546Z,19.90
2022-09-30T13:50:25.956Z,19.90
2022-09-30T13:52:52.374Z,19.90
2022-09-30T13:55:18.775Z,19.90
2022-09-30T13:57:45.177Z,19.90
2022-09-30T14:00:11.581Z,19.90
2022-09-30T14:02:37.978Z,19.90
2022-09-30T14:05:04.390Z,19.90
2022-09-30T14:07:30.784Z,19.90
2022-09-30T14:09:57.205Z,20.00
2022-09-30T14:12:23.594Z,20.00
2022-09-30T14:17:16.968Z,19.90
2022-09-30T14:19:43.366Z,19.90
2022-09-30T14:22:09.758Z,19.90
2022-09-30T14:24:37.876Z,20.00
2022-09-30T14:27:04.565Z,19.90
2022-09-30T14:29:30.976Z,20.00
2022-09-30T14:31:57.439Z,20.00
2022-09-30T14:34:23.948Z,20.00
2022-09-30T14:36:50.341Z,20.00
2022-09-30T14:39:16.760Z,20.00
2022-09-30T14:41:43.158Z,20.00
2022-09-30T14:44:09.561Z,20.00
2022-09-30T14:46:36.337Z,19.90
2022-09-30T14:49:02.959Z,20.00
2022-09-30T14:51:29.369Z,19.90
2022-09-30T14:53:55.769Z,20.00
2022-09-30T14:56:22.178Z,19.90
2022-09-30T14:58:48.587Z,19.90
2022-09-30T15:01:15.032Z,20.00
2022-09-30T15:03:41.520Z,19.90
2022-09-30T15:06:07.974Z,19.90
2022-09-30T15:08:34.394Z,19.90
2022-09-30T15:11:00.789Z,19.90
2022-09-30T15:13:27.211Z,19.90
2022-09-30T15:15:53.670Z,19.90
2022-09-30T15:18:20.137Z,19.90
2022-09-30T15:20:46.551Z,19.90
2022-09-30T15:23:12.958Z,19.90
2022-09-30T15:25:39.376Z,19.90
2022-09-30T15:28:05.880Z,19.90
2022-09-30T15:30:32.325Z,19.90
2022-09-30T15:32:58.753Z,19.90
2022-09-30T15:35:25.198Z,19.90
2022-09-30T15:37:51.612Z,19.90
2022-09-30T15:40:18.008Z,19.90
2022-09-30T15:42:44.410Z,19.90
2022-09-30T15:45:10.826Z,19.90
2022-09-30T15:47:37.248Z,19.90
2022-09-30T15:50:03.735Z,19.90
2022-09-30T15:52:30.205Z,19.90
2022-09-30T15:54:56.599Z,19.90
2022-09-30T15:57:22.993Z,19.90
2022-09-30T15:59:49.397Z,19.90
2022-09-30T16:02:16.986Z,19.80
2022-09-30T16:04:43.397Z,19.80
2022-09-30T16:07:09.800Z,19.80
2022-09-30T16:09:36.213Z,19.80
2022-09-30T16:12:02.600Z,19.90
2022-09-30T16:14:29.030Z,19.90
2022-09-30T16:16:55.515Z,19.80
2022-09-30T16:19:21.954Z,20.00
2022-09-30T16:21:48.361Z,19.90
2022-09-30T16:24:14.784Z,20.00
2022-09-30T16:26:41.179Z,20.00
2022-09-30T16:29:12.015Z,20.10
2022-09-30T16:31:40.179Z,20.10
2022-09-30T16:34:06.694Z,20.10
2022-09-30T16:36:33.625Z,20.10
2022-09-30T16:39:00.270Z,20.20
2022-09-30T16:41:26.681Z,20.10
2022-09-30T16:43:53.081Z,20.20
2022-09-30T16:46:19.517Z,20.10
2022-09-30T16:48:45.957Z,20.10
2022-09-30T16:51:12.350Z,20.20
2022-09-30T16:53:38.757Z,20.10
2022-09-30T16:56:05.159Z,20.10
2022-09-30T16:58:31.554Z,20.10
2022-09-30T17:00:58.007Z,20.10
2022-09-30T17:03:24.458Z,20.10
2022-09-30T17:05:50.856Z,20.00
2022-09-30T17:08:17.261Z,20.10
2022-09-30T17:10:43.701Z,20.00
2022-09-30T17:13:10.098Z,19.90
2022-09-30T17:15:36.495Z,20.00
2022-09-30T17:18:02.898Z,20.00
2022-09-30T17:20:29.288Z,19.90
2022-09-30T17:22:55.687Z,20.00
2022-09-30T17:25:22.081Z,19.90
2022-09-30T17:27:48.523Z,19.90
2022-09-30T17:30:14.968Z,19.90
2022-09-30T17:32:41.372Z,19.90
2022-09-30T17:35:07.773Z,19.90
2022-09-30T17:37:34.187Z,19.90
2022-09-30T17:40:00.613Z,19.90
2022-09-30T17:42:27.042Z,19.90
2022-09-30T17:44:53.428Z,19.90
2022-09-30T17:47:19.879Z,19.90
2022-09-30T17:49:46.281Z,19.90
2022-09-30T17:52:12.679Z,19.80
2022-09-30T17:54:39.099Z,19.90
2022-09-30T17:57:05.499Z,19.80
2022-09-30T17:59:31.948Z,19.80
2022-09-30T18:01:58.356Z,19.90
2022-09-30T18:04:24.836Z,19.80
2022-09-30T18:06:51.245Z,19.80
2022-09-30T18:09:17.657Z,19.80
2022-09-30T18:11:44.637Z,19.70
2022-09-30T18:14:11.321Z,19.80
2022-09-30T18:16:37.828Z,19.80
2022-09-30T18:19:04.377Z,19.80
2022-09-30T18:21:31.134Z,19.80
2022-09-30T18:23:57.713Z,19.70
2022-09-30T18:26:24.113Z,19.80
2022-09-30T18:28:50.581Z,19.80
2022-09-30T18:31:17.072Z,19.70
2022-09-30T18:33:43.506Z,19.80
2022-09-30T18:36:09.905Z,19.70
2022-09-30T18:38:36.326Z,19.70
2022-09-30T18:41:02.749Z,19.70
2022-09-30T18:43:29.146Z,19.80
2022-09-30T18:45:55.575Z,19.70
2022-09-30T18:48:21.989Z,19.70
2022-09-30T18:50:48.398Z,19.70
2022-09-30T18:53:14.788Z,19.70
2022-09-30T18:55:41.197Z,19.80
2022-09-30T18:58:07.598Z,19.70
2022-09-30T19:00:34.084Z,19.70
2022-09-30T19:03:00.525Z,19.70
2022-09-30T19:05:26.949Z,19.70
2022-09-30T19:07:53.353Z,19.70
2022-09-30T19:10:19.773Z,19.70
2022-09-30T19:12:46.166Z,19.70
2022-09-30T19:15:12.586Z,19.70
2022-09-30T19:17:38.976Z,19.60
2022-09-30T19:20:05.369Z,19.70
2022-09-30T19:22:31.783Z,19.60
2022-09-30T19:24:58.192Z,19.70
2022-09-30T19:27:24.613Z,19.70
2022-09-30T19:29:51.033Z,19.60
2022-09-30T19:32:17.458Z,19.60
2022-09-30T19:34:43.955Z,19.60
2022-09-30T19:37:22.990Z,19.70
2022-09-30T19:39:52.177Z,19.60
2022-09-30T19:42:18.585Z,19.70
2022-09-30T19:44:44.982Z,19.60
2022-09-30T19:47:11.393Z,19.60
2022-09-30T19:49:37.792Z,19.60
2022-09-30T19:52:12.555Z,19.70
2022-09-30T19:54:43.006Z,19.60
2022-09-30T19:57:09.396Z,19.60
2022-09-30T19:59:35.790Z,19.60
2022-09-30T20:02:02.226Z,19.60
2022-09-30T20:04:28.651Z,19.60
2022-09-30T20:06:55.073Z,19.60
2022-09-30T20:09:21.489Z,19.60
2022-09-30T20:11:49.730Z,19.50
2022-09-30T20:14:16.121Z,20.80
2022-09-30T20:16:42.557Z,19.60
2022-09-30T20:19:08.984Z,19.60
2022-09-30T20:21:35.538Z,19.60
2022-09-30T20:24:02.023Z,19.60
2022-09-30T20:26:28.421Z,19.60
2022-09-30T20:28:54.833Z,19.60
2022-09-30T20:31:21.299Z,19.60
2022-09-30T20:33:47.725Z,19.60
2022-09-30T20:36:14.117Z,19.50
2022-09-30T20:38:40.518Z,19.60
2022-09-30T20:41:06.934Z,19.60
2022-09-30T20:43:33.337Z,19.60
2022-09-30T20:45:59.826Z,19.50
2022-09-30T20:48:28.841Z,19.60
2022-09-30T20:50:58.962Z,19.60
2022-09-30T20:53:25.358Z,19.60
2022-09-30T20:55:51.751Z,19.60
2022-09-30T20:58:18.150Z,19.60
2022-09-30T21:00:44.606Z,19.60
2022-09-30T21:03:11.000Z,19.60
2022-09-30T21:05:37.413Z,19.60
2022-09-30T21:08:03.799Z,19.50
2022-09-30T21:10:30.207Z,19.60
2022-09-30T21:12:56.630Z,19.50
2022-09-30T21:15:23.021Z,19.50
2022-09-30T21:17:49.456Z,19.50
2022-09-30T21:20:15.868Z,19.50
2022-09-30T21:22:42.270Z,19.60
2022-09-30T21:25:08.685Z,19.50
2022-09-30T21:27:35.090Z,19.60
2022-09-30T21:30:01.489Z,19.50
2022-09-30T21:32:27.892Z,19.50
2022-09-30T21:34:54.280Z,19.50
2022-09-30T21:37:20.682Z,19.50
2022-09-30T21:39:47.069Z,19.60
2022-09-30T21:42:13.454Z,19.50
2022-09-30T21:44:39.840Z,19.50
2022-09-30T21:47:06.225Z,19.60
2022-09-30T21:49:32.643Z,19.50
2022-09-30T21:51:59.029Z,19.50
2022-09-30T21:54:25.432Z,19.60
2022-09-30T21:56:51.826Z,19.50
2022-09-30T21:59:18.226Z,19.50
2022-09-30T22:01:44.637Z,19.50
2022-09-30T22:04:11.069Z,19.50
2022-09-30T22:06:37.498Z,19.50
2022-09-30T22:09:03.904Z,19.60
2022-09-30T22:11:30.907Z,19.50
2022-09-30T22:13:57.763Z,19.50
2022-09-30T22:16:24.286Z,19.50
2022-09-30T22:18:50.716Z,19.50
2022-09-30T22:21:17.127Z,19.50
2022-09-30T22:23:43.546Z,19.50
2022-09-30T22:26:09.949Z,19.50
2022-09-30T22:28:36.354Z,19.50
2022-09-30T22:31:02.747Z,19.50
2022-09-30T22:33:29.181Z,19.50
2022-09-30T22:35:55.581Z,19.50
2022-09-30T22:38:21.984Z,19.50
2022-09-30T22:40:48.398Z,19.50
2022-09-30T22:43:14.793Z,19.50
2022-09-30T22:45:41.216Z,19.50
2022-09-30T22:48:07.687Z,19.50
2022-09-30T22:50:34.097Z,19.50
2022-09-30T22:53:00.484Z,19.50
2022-09-30T22:55:26.881Z,19.50
2022-09-30T22:57:53.285Z,19.60
2022-09-30T23:00:19.688Z,19.50
2022-09-30T23:02:46.094Z,19.50
2022-09-30T23:05:13.649Z,19.50
2022-09-30T23:07:40.097Z,19.50
2022-09-30T23:10:06.489Z,19.50
2022-09-30T23:12:32.884Z,19.50
2022-09-30T23:14:59.297Z,19.50
2022-09-30T23:17:25.680Z,19.50
2022-09-30T23:19:52.095Z,19.50
2022-09-30T23:22:18.490Z,19.50
2022-09-30T23:24:44.918Z,19.50
2022-09-30T23:27:11.304Z,19.50
2022-09-30T23:29:37.713Z,19.50
2022-09-30T23:32:04.178Z,19.50
2022-09-30T23:34:30.634Z,19.50
2022-09-30T23:36:57.030Z,19.50
2022-09-30T23:39:23.425Z,19.50
2022-09-30T23:41:49.848Z,19.50
2022-09-30T23:44:16.242Z,19.50
2022-09-30T23:46:42.649Z,19.50
2022-09-30T23:49:09.037Z,19.50
2022-09-30T23:51:35.747Z,19.50
2022-09-30T23:54:02.400Z,19.50
2022-09-30T23:56:28.857Z,19.50
2022-09-30T23:58:55.256Z,19.50
